Time;durP1;ratioP1;P1;durP2;ratioP2;P2;SDS_P1;SDS_P2;PMS_P1;PMS_P2;Temp;Humidity;BMP_temperature;BMP_pressure;BME280_temperature;BME280_humidity;BME280_pressure;Samples;Min_cycle;Max_cycle;Signal;HPM_P1;HPM_P2
2023/01/28 00:01:43;;;;;;;26.23;7.53;;;;;;;;;;10481995;28;20458;-75
2023/01/28 00:06:46;;;;;;;27.48;8.23;;;;;;;;;;10497938;28;20045;-76
2023/01/28 00:11:48;;;;;;;29.77;9.27;;;;;;;;;;10488035;28;20048;-75
2023/01/28 00:16:52;;;;;;;29.90;9.23;;;;;;;;;;10483311;28;20444;-75
2023/01/28 00:21:55;;;;;;;;;;;;;;;;;;10486539;28;20032;-74
2023/01/28 00:26:58;;;;;;;25.40;8.37;;;;;;;;;;10481896;28;19920;-75
2023/01/28 00:32:02;;;;;;;29.50;8.97;;;;;;;;;;10491216;28;20044;-74
2023/01/28 00:37:05;;;;;;;28.67;8.80;;;;;;;;;;10492698;28;20044;-75
2023/01/28 00:42:07;;;;;;;24.98;8.52;;;;;;;;;;10483273;28;20037;-76
2023/01/28 00:47:12;;;;;;;24.57;7.73;;;;;;;;;;10474511;28;20048;-75
2023/01/28 00:52:14;;;;;;;22.83;6.90;;;;;;;;;;10482228;28;20091;-76
2023/01/28 00:57:17;;;;;;;21.33;6.87;;;;;;;;;;10487357;28;20093;-77
2023/01/28 01:02:21;;;;;;;22.17;7.70;;;;;;;;;;10487349;28;20055;-76
2023/01/28 01:07:33;;;;;;;21.63;6.93;;;;;;;;;;10483580;28;20051;-76
2023/01/28 01:12:36;;;;;;;16.90;6.07;;;;;;;;;;10485568;28;20169;-77
2023/01/28 01:17:41;;;;;;;29.70;9.10;;;;;;;;;;10484187;28;20389;-77
2023/01/28 01:22:44;;;;;;;23.30;7.17;;;;;;;;;;10488606;28;20489;-76
2023/01/28 01:27:48;;;;;;;23.23;7.67;;;;;;;;;;10488376;28;20112;-77
2023/01/28 01:32:52;;;;;;;25.30;8.05;;;;;;;;;;10487623;28;20054;-75
2023/01/28 01:37:54;;;;;;;24.17;7.85;;;;;;;;;;10479513;28;20042;-74
2023/01/28 01:42:57;;;;;;;19.73;6.83;;;;;;;;;;10478569;28;20041;-75
2023/01/28 01:48:03;;;;;;;20.07;6.37;;;;;;;;;;10481342;28;20060;-75
2023/01/28 01:53:07;;;;;;;26.00;8.33;;;;;;;;;;10487792;28;20047;-75
2023/01/28 01:58:11;;;;;;;22.53;7.13;;;;;;;;;;10508494;28;20033;-74
2023/01/28 02:03:17;;;;;;;17.08;5.93;;;;;;;;;;10494428;28;20167;-72
2023/01/28 02:08:24;;;;;;;22.27;6.83;;;;;;;;;;10489200;28;20086;-73
2023/01/28 02:13:28;;;;;;;19.03;5.43;;;;;;;;;;10483769;28;20043;-74
2023/01/28 02:18:33;;;;;;;25.17;6.90;;;;;;;;;;10473128;28;20106;-75
2023/01/28 02:23:44;;;;;;;23.57;7.47;;;;;;;;;;10487864;28;20413;-76
2023/01/28 02:28:49;;;;;;;21.17;6.07;;;;;;;;;;10491652;28;20045;-75
2023/01/28 02:33:54;;;;;;;18.33;6.27;;;;;;;;;;10482892;28;20131;-75
2023/01/28 02:38:59;;;;;;;24.80;7.40;;;;;;;;;;10493096;28;20033;-74
2023/01/28 02:44:03;;;;;;;27.67;7.70;;;;;;;;;;10490307;28;20124;-75
2023/01/28 02:49:06;;;;;;;;;;;;;;;;;;10506705;28;20068;-75
2023/01/28 02:54:11;;;;;;;21.63;5.87;;;;;;;;;;10495266;28;19973;-77
2023/01/28 02:59:32;;;;;;;28.47;8.07;;;;;;;;;;10495772;28;20044;-76
2023/01/28 03:04:38;;;;;;;23.37;7.43;;;;;;;;;;10504204;28;20036;-76
2023/01/28 03:09:42;;;;;;;20.83;6.57;;;;;;;;;;10499572;28;20528;-77
2023/01/28 03:41:36;;;;;;;25.47;7.83;;;;;;;;;;10497616;28;19926;-75
2023/01/28 03:46:39;;;;;;;28.47;7.67;;;;;;;;;;10492225;28;20040;-75
2023/01/28 03:51:42;;;;;;;26.20;8.80;;;;;;;;;;10491524;28;20526;-75
2023/01/28 03:56:45;;;;;;;27.40;8.60;;;;;;;;;;10506670;28;20040;-75
2023/01/28 04:01:49;;;;;;;20.97;6.33;;;;;;;;;;10503300;28;20036;-74
2023/01/28 04:06:52;;;;;;;22.90;6.07;;;;;;;;;;10495794;28;20491;-75
2023/01/28 04:11:55;;;;;;;10.73;3.93;;;;;;;;;;10492886;28;20041;-75
2023/01/28 04:16:59;;;;;;;21.60;6.47;;;;;;;;;;10491634;28;20077;-73
2023/01/28 04:22:01;;;;;;;26.67;8.27;;;;;;;;;;10496583;28;20040;-74
2023/01/28 04:27:04;;;;;;;29.17;8.40;;;;;;;;;;10490516;28;20032;-74
2023/01/28 04:32:08;;;;;;;23.63;8.90;;;;;;;;;;10504544;28;20044;-76
2023/01/28 04:37:13;;;;;;;28.73;8.73;;;;;;;;;;10493791;28;20548;-75
2023/01/28 04:42:15;;;;;;;24.13;7.17;;;;;;;;;;10500670;28;20485;-76
2023/01/28 04:47:19;;;;;;;25.40;8.70;;;;;;;;;;10494937;28;20025;-75
2023/01/28 04:52:22;;;;;;;19.23;7.05;;;;;;;;;;10490651;28;20036;-75
2023/01/28 04:57:25;;;;;;;23.80;7.90;;;;;;;;;;10477136;28;20050;-76
2023/01/28 05:02:29;;;;;;;27.70;8.90;;;;;;;;;;10493312;28;20044;-75
2023/01/28 05:07:31;;;;;;;23.13;8.32;;;;;;;;;;10492575;28;20056;-75
2023/01/28 05:12:34;;;;;;;28.47;8.83;;;;;;;;;;10479848;28;20111;-75
2023/01/28 05:17:38;;;;;;;21.77;7.17;;;;;;;;;;10502712;28;20370;-75
2023/01/28 05:22:41;;;;;;;21.95;7.53;;;;;;;;;;10492127;28;20072;-76
2023/01/28 05:27:44;;;;;;;23.17;7.93;;;;;;;;;;10493377;28;20036;-74
2023/01/28 05:32:48;;;;;;;21.70;7.63;;;;;;;;;;10485955;28;20048;-74
2023/01/28 05:37:51;;;;;;;20.08;6.25;;;;;;;;;;10494989;28;20037;-77
2023/01/28 05:42:53;;;;;;;23.10;7.30;;;;;;;;;;10478420;28;20044;-74
2023/01/28 05:47:57;;;;;;;22.83;7.20;;;;;;;;;;10493357;28;20048;-74
2023/01/28 05:53:00;;;;;;;19.85;6.03;;;;;;;;;;10492431;28;20048;-75
2023/01/28 05:58:02;;;;;;;21.13;7.43;;;;;;;;;;10501579;28;20106;-75
2023/01/28 06:03:06;;;;;;;17.55;5.05;;;;;;;;;;10490723;28;20067;-74
2023/01/28 06:08:09;;;;;;;10.10;4.85;;;;;;;;;;10487948;28;20265;-75
2023/01/28 06:13:11;;;;;;;14.30;5.57;;;;;;;;;;10498679;28;20032;-75
2023/01/28 06:18:15;;;;;;;19.67;6.57;;;;;;;;;;10510676;28;20028;-75
2023/01/28 06:23:18;;;;;;;24.08;7.35;;;;;;;;;;10500585;28;20037;-76
2023/01/28 06:28:20;;;;;;;20.23;6.27;;;;;;;;;;10506280;28;20056;-75
2023/01/28 06:33:24;;;;;;;24.17;7.13;;;;;;;;;;10492505;28;20045;-76
2023/01/28 06:38:27;;;;;;;19.67;6.18;;;;;;;;;;10498573;28;20138;-74
2023/01/28 06:43:29;;;;;;;19.07;6.63;;;;;;;;;;10501505;28;20036;-75
2023/01/28 06:48:33;;;;;;;16.60;5.77;;;;;;;;;;10495636;28;20036;-75
2023/01/28 06:53:36;;;;;;;14.65;5.22;;;;;;;;;;10494396;28;20049;-74
2023/01/28 06:58:39;;;;;;;18.67;5.80;;;;;;;;;;10497757;28;20486;-76
2023/01/28 07:03:43;;;;;;;17.60;6.07;;;;;;;;;;10498115;28;20048;-76
2023/01/28 07:08:46;;;;;;;24.50;7.93;;;;;;;;;;10491563;28;20119;-76
2023/01/28 07:13:49;;;;;;;29.37;7.80;;;;;;;;;;10498671;28;20040;-76
2023/01/28 07:18:53;;;;;;;19.87;7.37;;;;;;;;;;10493842;28;20048;-75
2023/01/28 07:23:56;;;;;;;22.30;7.72;;;;;;;;;;10489369;28;20052;-75
2023/01/28 07:29:00;;;;;;;24.27;7.50;;;;;;;;;;10495722;28;20386;-76
2023/01/28 07:34:04;;;;;;;28.07;7.17;;;;;;;;;;10487908;28;20037;-75
2023/01/28 07:39:07;;;;;;;17.60;5.82;;;;;;;;;;10471041;28;20136;-75
2023/01/28 07:44:10;;;;;;;10.17;3.13;;;;;;;;;;10484714;28;20044;-74
2023/01/28 07:49:14;;;;;;;17.97;5.73;;;;;;;;;;10482815;28;20059;-76
2023/01/28 07:54:17;;;;;;;8.93;2.93;;;;;;;;;;10492480;28;20072;-75
2023/01/28 07:59:20;;;;;;;16.73;5.67;;;;;;;;;;10493195;28;20047;-75
2023/01/28 08:04:24;;;;;;;20.00;5.47;;;;;;;;;;10491137;28;20063;-74
2023/01/28 08:09:26;;;;;;;20.77;7.28;;;;;;;;;;10488549;28;20063;-75
2023/01/28 08:14:29;;;;;;;20.33;6.33;;;;;;;;;;10488211;28;20052;-73
2023/01/28 08:19:33;;;;;;;10.07;3.87;;;;;;;;;;10485910;28;20048;-73
2023/01/28 08:24:35;;;;;;;13.65;5.05;;;;;;;;;;10488516;28;20044;-74
2023/01/28 08:29:38;;;;;;;12.83;5.03;;;;;;;;;;10486992;28;20043;-75
2023/01/28 08:34:42;;;;;;;13.77;4.67;;;;;;;;;;10501281;28;20484;-75
2023/01/28 08:39:44;;;;;;;14.48;5.45;;;;;;;;;;10485194;28;20116;-76
2023/01/28 08:44:48;;;;;;;17.63;6.50;;;;;;;;;;10489687;28;20055;-76
2023/01/28 08:49:51;;;;;;;21.33;6.77;;;;;;;;;;10488921;28;20063;-75
2023/01/28 08:54:54;;;;;;;19.17;6.22;;;;;;;;;;10485799;28;20044;-75
2023/01/28 08:59:56;;;;;;;18.53;6.50;;;;;;;;;;10489949;28;20036;-75
2023/01/28 09:05:00;;;;;;;9.80;4.00;;;;;;;;;;10477996;28;20033;-76
2023/01/28 09:10:03;;;;;;;19.98;6.05;;;;;;;;;;10461090;28;20079;-76
2023/01/28 09:15:07;;;;;;;12.93;5.17;;;;;;;;;;10483857;28;20036;-77
2023/01/28 09:20:12;;;;;;;16.03;5.47;;;;;;;;;;10486280;28;20071;-75
2023/01/28 09:25:15;;;;;;;19.77;7.23;;;;;;;;;;10489654;28;20062;-75
2023/01/28 09:30:18;;;;;;;17.27;5.90;;;;;;;;;;10490239;28;20048;-76
2023/01/28 09:35:22;;;;;;;18.60;5.83;;;;;;;;;;10481033;28;20451;-75
2023/01/28 09:40:24;;;;;;;;;;;;;;;;;;10484545;28;20044;-76
2023/01/28 09:45:31;;;;;;;17.80;5.40;;;;;;;;;;10488391;28;20028;-75
2023/01/28 09:50:37;;;;;;;18.87;6.87;;;;;;;;;;10482593;28;20251;-76
2023/01/28 09:55:43;;;;;;;16.70;7.13;;;;;;;;;;10481763;28;20409;-75
2023/01/28 10:00:51;;;;;;;19.88;8.50;;;;;;;;;;10483021;28;20195;-74
2023/01/28 10:05:59;;;;;;;18.77;6.55;;;;;;;;;;10491210;28;20183;-75
2023/01/28 10:11:05;;;;;;;15.35;5.80;;;;;;;;;;10490295;28;20146;-75
2023/01/28 10:16:11;;;;;;;21.38;7.38;;;;;;;;;;10494686;28;20090;-76
2023/01/28 10:21:17;;;;;;;19.90;7.15;;;;;;;;;;10484258;28;20581;-75
2023/01/28 10:26:22;;;;;;;20.70;6.90;;;;;;;;;;10491070;28;20562;-75
2023/01/28 10:31:30;;;;;;;17.00;7.20;;;;;;;;;;10490060;28;20040;-76
2023/01/28 10:36:34;;;;;;;17.08;7.18;;;;;;;;;;10485795;28;20036;-75
2023/01/28 10:41:37;;;;;;;18.10;6.72;;;;;;;;;;10484027;28;20604;-74
2023/01/28 10:47:00;;;;;;;17.25;6.35;;;;;;;;;;10488221;28;20029;-74
2023/01/28 10:52:12;;;;;;;17.88;6.30;;;;;;;;;;10486031;28;20124;-75
2023/01/28 10:57:17;;;;;;;15.02;6.15;;;;;;;;;;10483559;28;20044;-74
2023/01/28 11:02:24;;;;;;;13.90;5.45;;;;;;;;;;10496167;28;20040;-75
2023/01/28 11:07:29;;;;;;;15.23;6.88;;;;;;;;;;10500172;28;20073;-76
2023/01/28 11:12:32;;;;;;;14.73;5.75;;;;;;;;;;10496067;28;20048;-76
2023/01/28 11:17:38;;;;;;;13.77;5.82;;;;;;;;;;10497710;28;20025;-75
2023/01/28 11:22:43;;;;;;;15.57;6.68;;;;;;;;;;10504050;28;20460;-75
2023/01/28 11:27:47;;;;;;;17.20;6.88;;;;;;;;;;10501683;28;20122;-75
2023/01/28 11:33:08;;;;;;;13.15;5.90;;;;;;;;;;10490405;28;20425;-75
2023/01/28 11:38:18;;;;;;;19.85;9.43;;;;;;;;;;10504565;28;20032;-75
2023/01/28 11:43:21;;;;;;;13.70;6.10;;;;;;;;;;10494740;28;20033;-75
2023/01/28 11:48:29;;;;;;;11.65;5.15;;;;;;;;;;10486490;28;20050;-74
2023/01/28 11:53:42;;;;;;;14.90;5.75;;;;;;;;;;10494988;28;20048;-76
2023/01/28 11:58:50;;;;;;;16.08;6.75;;;;;;;;;;10489922;28;20127;-77
2023/01/28 12:04:11;;;;;;;12.98;5.40;;;;;;;;;;10499198;28;20032;-76
2023/01/28 12:09:21;;;;;;;14.32;5.82;;;;;;;;;;10492380;28;20454;-74
2023/01/28 12:14:27;;;;;;;15.45;6.90;;;;;;;;;;10487062;28;20077;-74
2023/01/28 12:19:44;;;;;;;18.80;6.65;;;;;;;;;;10486130;28;20048;-75
2023/01/28 12:24:55;;;;;;;15.15;6.88;;;;;;;;;;10493218;28;20101;-75
2023/01/28 12:30:03;;;;;;;17.08;7.45;;;;;;;;;;10489643;28;20036;-75
2023/01/28 12:35:16;;;;;;;18.60;5.40;;;;;;;;;;10485990;28;20044;-76
2023/01/28 12:40:29;;;;;;;18.23;6.45;;;;;;;;;;10484093;28;20059;-75
2023/01/28 12:45:39;;;;;;;18.92;7.03;;;;;;;;;;10485067;28;20036;-75
2023/01/28 12:50:46;;;;;;;17.88;7.80;;;;;;;;;;10486155;28;20063;-75
2023/01/28 12:55:53;;;;;;;20.98;8.20;;;;;;;;;;10486011;28;20147;-75
2023/01/28 13:00:59;;;;;;;17.73;6.85;;;;;;;;;;10485428;28;20042;-75
2023/01/28 13:06:02;;;;;;;17.02;7.05;;;;;;;;;;10485090;28;20037;-75
2023/01/28 13:11:07;;;;;;;19.88;7.43;;;;;;;;;;10486422;28;20044;-74
2023/01/28 13:16:10;;;;;;;18.27;6.72;;;;;;;;;;10493351;28;20036;-75
2023/01/28 13:21:14;;;;;;;20.47;7.60;;;;;;;;;;10484743;28;20040;-75
2023/01/28 13:26:17;;;;;;;;;;;;;;;;;;10482889;28;20049;-74
2023/01/28 13:31:22;;;;;;;16.60;6.23;;;;;;;;;;10486026;28;19921;-76
2023/01/28 13:36:27;;;;;;;17.05;7.57;;;;;;;;;;10484319;28;20063;-76
2023/01/28 13:41:29;;;;;;;;;;;;;;;;;;10483235;28;20187;-76
2023/01/28 13:46:35;;;;;;;15.57;5.65;;;;;;;;;;10478555;28;19920;-76
2023/01/28 13:51:39;;;;;;;16.15;7.03;;;;;;;;;;10481838;28;20410;-75
2023/01/28 13:56:48;;;;;;;21.13;7.28;;;;;;;;;;10491298;28;20090;-75
2023/01/28 14:02:06;;;;;;;15.50;5.82;;;;;;;;;;10492206;28;20075;-75
2023/01/28 14:07:14;;;;;;;18.40;6.87;;;;;;;;;;10492885;28;20405;-75
2023/01/28 14:12:44;;;;;;;19.83;6.30;;;;;;;;;;10481666;28;20228;-75
2023/01/28 14:17:48;;;;;;;18.75;7.78;;;;;;;;;;10494835;28;20409;-76
2023/01/28 14:22:57;;;;;;;21.70;8.70;;;;;;;;;;10491968;28;20506;-75
2023/01/28 14:28:00;;;;;;;17.80;6.40;;;;;;;;;;10498742;28;20511;-76
2023/01/28 14:33:03;;;;;;;15.93;6.10;;;;;;;;;;10486414;28;20044;-75
2023/01/28 14:38:09;;;;;;;17.70;6.78;;;;;;;;;;10497763;28;20499;-75
2023/01/28 14:43:15;;;;;;;15.13;5.65;;;;;;;;;;10492753;28;20487;-75
2023/01/28 14:48:24;;;;;;;17.43;6.60;;;;;;;;;;10507005;28;20044;-74
2023/01/28 14:53:34;;;;;;;16.07;6.27;;;;;;;;;;10502097;28;20091;-74
2023/01/28 14:58:39;;;;;;;12.30;4.50;;;;;;;;;;10496415;28;20123;-75
2023/01/28 15:03:45;;;;;;;13.33;4.93;;;;;;;;;;10505977;28;20045;-76
2023/01/28 15:08:49;;;;;;;15.80;6.77;;;;;;;;;;10508123;28;20036;-75
2023/01/28 15:13:53;;;;;;;16.10;5.93;;;;;;;;;;10505372;28;20044;-75
2023/01/28 15:18:55;;;;;;;;;;;;;;;;;;10535028;28;20042;-73
2023/01/28 15:24:01;;;;;;;15.40;5.50;;;;;;;;;;10542429;28;19966;-74
2023/01/28 15:29:04;;;;;;;14.63;5.87;;;;;;;;;;10539207;28;20447;-74
2023/01/28 15:34:11;;;;;;;15.20;5.67;;;;;;;;;;10537456;28;20108;-74
2023/01/28 15:39:16;;;;;;;16.87;5.33;;;;;;;;;;10522345;28;20126;-75
2023/01/28 15:44:27;;;;;;;34.77;10.40;;;;;;;;;;10497769;28;20040;-75
2023/01/28 15:49:32;;;;;;;13.77;5.43;;;;;;;;;;10503779;28;20054;-76
2023/01/28 15:54:38;;;;;;;17.40;6.60;;;;;;;;;;10504680;28;20083;-74
2023/01/28 15:59:42;;;;;;;17.67;5.47;;;;;;;;;;10496921;28;20033;-76
2023/01/28 16:04:55;;;;;;;17.52;5.30;;;;;;;;;;10483509;28;20473;-77
2023/01/28 16:10:00;;;;;;;17.67;6.23;;;;;;;;;;10483435;28;20036;-76
2023/01/28 16:15:05;;;;;;;16.13;5.50;;;;;;;;;;10482022;28;20037;-76
2023/01/28 16:20:09;;;;;;;15.27;5.97;;;;;;;;;;10495263;28;20064;-75
2023/01/28 16:25:26;;;;;;;14.68;6.15;;;;;;;;;;10503700;28;20059;-75
2023/01/28 16:30:29;;;;;;;15.90;6.30;;;;;;;;;;10499107;28;20048;-75
2023/01/28 16:35:32;;;;;;;17.50;6.13;;;;;;;;;;10491612;28;20042;-75
2023/01/28 16:40:57;;;;;;;16.90;6.13;;;;;;;;;;10484016;28;20059;-74
2023/01/28 16:46:00;;;;;;;19.97;6.20;;;;;;;;;;10503123;28;20043;-76
2023/01/28 16:51:03;;;;;;;19.43;6.10;;;;;;;;;;10495575;28;20127;-75
2023/01/28 16:56:10;;;;;;;14.13;5.72;;;;;;;;;;10494360;28;20433;-75
2023/01/28 17:01:32;;;;;;;24.23;7.37;;;;;;;;;;10496281;28;20045;-74
2023/01/28 17:06:36;;;;;;;18.50;6.93;;;;;;;;;;10486837;28;20055;-75
2023/01/28 17:11:41;;;;;;;21.27;8.27;;;;;;;;;;10492176;28;20040;-77
2023/01/28 17:16:43;;;;;;;20.07;8.13;;;;;;;;;;10493431;28;20098;-75
2023/01/28 17:21:46;;;;;;;21.73;7.80;;;;;;;;;;10489882;28;20119;-76
2023/01/28 17:26:53;;;;;;;19.50;6.47;;;;;;;;;;10489322;28;20050;-76
2023/01/28 17:31:57;;;;;;;20.10;6.80;;;;;;;;;;10487974;28;20048;-75
2023/01/28 17:37:00;;;;;;;24.17;7.43;;;;;;;;;;10492146;28;20040;-75
2023/01/28 17:42:04;;;;;;;24.90;7.67;;;;;;;;;;10486123;28;20058;-75
2023/01/28 17:47:07;;;;;;;20.42;7.00;;;;;;;;;;10468500;28;20040;-75
2023/01/28 17:52:10;;;;;;;26.50;8.37;;;;;;;;;;10487672;28;20040;-75
2023/01/28 17:57:14;;;;;;;18.03;5.47;;;;;;;;;;10500720;28;20043;-76
2023/01/28 18:02:17;;;;;;;18.33;5.47;;;;;;;;;;10504665;28;20047;-75
2023/01/28 18:07:19;;;;;;;16.87;5.90;;;;;;;;;;10486068;28;20061;-75
2023/01/28 18:12:25;;;;;;;16.50;5.27;;;;;;;;;;10487868;28;20051;-75
2023/01/28 18:17:28;;;;;;;16.50;5.47;;;;;;;;;;10501446;28;20128;-75
2023/01/28 18:22:31;;;;;;;20.40;6.73;;;;;;;;;;10505945;28;20044;-75
2023/01/28 18:27:35;;;;;;;16.83;7.03;;;;;;;;;;10500731;28;20040;-75
2023/01/28 18:32:39;;;;;;;20.45;6.75;;;;;;;;;;10479968;28;20076;-75
2023/01/28 18:37:42;;;;;;;23.05;6.85;;;;;;;;;;10493050;28;20036;-74
2023/01/28 18:42:46;;;;;;;20.47;6.83;;;;;;;;;;10495030;28;20482;-76
2023/01/28 18:47:48;;;;;;;22.27;7.63;;;;;;;;;;10498780;28;20148;-75
2023/01/28 18:52:53;;;;;;;21.63;7.37;;;;;;;;;;10501730;28;20501;-75
2023/01/28 18:57:57;;;;;;;20.93;7.43;;;;;;;;;;10497129;28;20509;-75
2023/01/28 19:03:02;;;;;;;22.53;6.90;;;;;;;;;;10499974;28;20451;-76
2023/01/28 19:08:05;;;;;;;18.97;7.30;;;;;;;;;;10492331;28;20401;-75
2023/01/28 19:13:09;;;;;;;17.40;5.97;;;;;;;;;;10497757;28;20442;-75
2023/01/28 19:18:12;;;;;;;21.25;6.65;;;;;;;;;;10484904;28;20049;-76
2023/01/28 19:23:14;;;;;;;22.10;7.50;;;;;;;;;;10493272;28;20037;-77
2023/01/28 19:28:18;;;;;;;29.23;8.37;;;;;;;;;;10501239;28;20043;-76
2023/01/28 19:33:21;;;;;;;21.48;7.72;;;;;;;;;;10483023;28;20062;-76
2023/01/28 19:38:24;;;;;;;21.87;7.20;;;;;;;;;;10491267;28;20094;-75
2023/01/28 19:43:28;;;;;;;25.23;7.87;;;;;;;;;;10486211;28;20694;-75
2023/01/28 19:48:31;;;;;;;20.10;6.60;;;;;;;;;;10494746;28;20041;-74
2023/01/28 19:53:34;;;;;;;20.17;7.10;;;;;;;;;;10498967;28;20131;-75
2023/01/28 19:58:38;;;;;;;18.93;5.97;;;;;;;;;;10491928;28;20036;-74
2023/01/28 20:03:41;;;;;;;24.33;6.23;;;;;;;;;;10492957;28;20392;-74
2023/01/28 20:08:44;;;;;;;15.37;5.77;;;;;;;;;;10494579;28;20085;-74
2023/01/28 20:13:48;;;;;;;19.73;5.83;;;;;;;;;;10491884;28;20454;-74
2023/01/28 20:18:52;;;;;;;17.90;5.17;;;;;;;;;;10492423;28;20028;-76
2023/01/28 20:23:56;;;;;;;14.75;5.05;;;;;;;;;;10485322;28;20169;-74
2023/01/28 20:29:01;;;;;;;15.47;5.53;;;;;;;;;;10496069;28;20036;-75
2023/01/28 20:34:03;;;;;;;;;;;;;;;;;;10486314;28;20486;-76
2023/01/28 20:39:06;;;;;;;23.47;8.07;;;;;;;;;;10481734;28;19955;-74
2023/01/28 20:44:10;;;;;;;14.87;5.70;;;;;;;;;;10486935;28;20048;-75
2023/01/28 20:49:12;;;;;;;16.30;5.57;;;;;;;;;;10485994;28;20036;-74
2023/01/28 20:54:16;;;;;;;17.00;6.90;;;;;;;;;;10485147;28;20493;-76
2023/01/28 20:59:22;;;;;;;19.60;7.05;;;;;;;;;;10490812;28;20049;-75
2023/01/28 21:04:25;;;;;;;20.10;5.63;;;;;;;;;;10482785;28;20597;-76
2023/01/28 21:09:28;;;;;;;26.53;6.87;;;;;;;;;;10483999;28;20037;-76
2023/01/28 21:14:32;;;;;;;26.67;7.73;;;;;;;;;;10492646;28;20666;-74
2023/01/28 21:19:35;;;;;;;27.13;7.82;;;;;;;;;;10470761;28;20114;-76
2023/01/28 21:24:37;;;;;;;19.33;6.90;;;;;;;;;;10478535;28;20047;-74
2023/01/28 21:29:41;;;;;;;16.90;6.10;;;;;;;;;;10479967;28;20040;-75
2023/01/28 21:34:44;;;;;;;;;;;;;;;;;;10493713;28;20043;-75
2023/01/28 21:39:46;;;;;;;18.00;5.63;;;;;;;;;;10487217;28;20389;-76
2023/01/28 21:44:51;;;;;;;18.83;6.03;;;;;;;;;;10466156;28;20036;-76
2023/01/28 21:49:53;;;;;;;22.13;6.38;;;;;;;;;;10482609;28;20051;-74
2023/01/28 21:54:57;;;;;;;15.70;5.30;;;;;;;;;;10480729;28;20043;-76
2023/01/28 22:00:02;;;;;;;18.38;6.07;;;;;;;;;;10458404;28;20417;-75
2023/01/28 22:05:05;;;;;;;18.10;6.07;;;;;;;;;;10476401;28;20043;-75
2023/01/28 22:10:08;;;;;;;29.27;9.70;;;;;;;;;;10479450;28;20051;-75
2023/01/28 22:15:12;;;;;;;26.13;10.83;;;;;;;;;;10480549;28;20063;-74
2023/01/28 22:20:15;;;;;;;24.00;8.20;;;;;;;;;;10478369;28;20044;-75
2023/01/28 22:25:18;;;;;;;27.10;8.77;;;;;;;;;;10485084;28;20090;-75
2023/01/28 22:30:24;;;;;;;28.27;10.02;;;;;;;;;;10482570;28;20044;-77
2023/01/28 22:35:27;;;;;;;26.97;9.03;;;;;;;;;;10469479;28;20048;-74
2023/01/28 22:40:29;;;;;;;26.33;8.60;;;;;;;;;;10476125;28;20545;-77
2023/01/28 22:45:35;;;;;;;20.60;7.60;;;;;;;;;;10475760;28;20160;-77
2023/01/28 22:50:38;;;;;;;33.70;10.70;;;;;;;;;;10474361;28;20519;-76
2023/01/28 22:55:40;;;;;;;26.43;8.30;;;;;;;;;;10453711;28;20117;-76
2023/01/28 23:00:44;;;;;;;25.30;8.67;;;;;;;;;;10486524;28;20040;-76
2023/01/28 23:05:47;;;;;;;21.45;7.28;;;;;;;;;;10485863;28;20040;-77
2023/01/28 23:10:50;;;;;;;19.63;7.13;;;;;;;;;;10479301;28;20136;-76
2023/01/28 23:26:38;;;;;;;17.23;6.88;;;;;;;;;;10485195;28;20514;-74
2023/01/28 23:31:42;;;;;;;18.40;6.47;;;;;;;;;;10497186;28;20044;-76
2023/01/28 23:36:45;;;;;;;22.10;7.90;;;;;;;;;;10487074;28;20040;-74
2023/01/28 23:41:48;;;;;;;19.57;6.80;;;;;;;;;;10482432;28;20040;-75
2023/01/28 23:46:52;;;;;;;25.07;8.03;;;;;;;;;;10490742;28;20049;-76
2023/01/28 23:51:54;;;;;;;23.85;7.78;;;;;;;;;;10482916;28;20037;-76
2023/01/28 23:56:57;;;;;;;21.87;8.07;;;;;;;;;;10491066;28;20119;-75
